Time;durP1;ratioP1;P1;durP2;ratioP2;P2;SDS_P1;SDS_P2;PMS_P1;PMS_P2;Temp;Humidity;BMP_temperature;BMP_pressure;BME280_temperature;BME280_humidity;BME280_pressure;Samples;Min_cycle;Max_cycle;Signal;HPM_P1;HPM_P2
2022/01/26 00:00:07;;;;;;;182.57;19.40;;;0.00;99.90;;;-1.38;100.00;99074.84;5027180;28;20140;-68
2022/01/26 00:08:06;;;;;;;217.57;24.98;;;-0.10;99.90;;;-1.94;100.00;99077.41;5026528;28;20060;-67
2022/01/26 00:10:34;;;;;;;291.20;28.63;;;-0.20;99.90;;;-2.06;100.00;99070.25;5026606;28;20037;-68
2022/01/26 00:13:01;;;;;;;231.90;25.40;;;-0.30;99.90;;;-1.90;100.00;99067.38;5027454;28;20049;-68
2022/01/26 00:15:30;;;;;;;311.58;29.85;;;-0.40;99.90;;;-2.19;100.00;99071.56;5028115;28;20463;-67
2022/01/26 00:17:57;;;;;;;272.30;28.67;;;-0.40;99.90;;;-2.11;100.00;99072.66;5028823;28;20413;-68
2022/01/26 00:27:53;;;;;;;230.25;25.10;;;-0.70;99.90;;;-2.27;100.00;99074.66;5028393;28;20137;-68
2022/01/26 00:38:42;;;;;;;81.82;19.38;;;-0.70;99.90;;;-2.32;100.00;99065.22;5027646;28;20140;-68
2022/01/26 00:41:15;;;;;;;116.28;21.30;;;-0.70;99.90;;;-2.16;100.00;99064.03;5028244;28;20072;-67
2022/01/26 00:43:54;;;;;;;260.02;28.95;;;-0.70;99.90;;;-2.28;100.00;99063.63;5028300;28;20203;-67
2022/01/26 00:46:23;;;;;;;127.53;21.63;;;-0.70;99.90;;;-2.39;100.00;99062.44;5026147;28;20111;-69
2022/01/26 00:48:51;;;;;;;259.17;27.42;;;-0.80;99.90;;;-2.43;100.00;99076.72;5028178;28;20041;-68
2022/01/26 00:51:20;;;;;;;101.78;18.27;;;-0.80;99.90;;;-2.26;100.00;99067.06;5025314;28;20061;-68
2022/01/26 00:54:00;;;;;;;66.35;18.77;;;-0.80;99.90;;;-2.22;100.00;99070.59;5027150;28;20046;-68
2022/01/26 00:56:28;;;;;;;129.05;21.00;;;-0.80;99.90;;;-2.18;100.00;99065.66;5026516;28;20053;-68
2022/01/26 00:58:56;;;;;;;117.78;20.55;;;-0.80;99.90;;;-2.11;100.00;99067.56;5025585;28;20540;-68
2022/01/26 01:01:23;;;;;;;66.38;17.10;;;-0.80;99.90;;;-2.05;100.00;99064.38;5026492;28;20049;-68
2022/01/26 01:03:55;;;;;;;106.63;19.47;;;-0.80;99.90;;;-2.02;100.00;99067.00;5028247;28;20053;-69
2022/01/26 01:06:33;;;;;;;217.00;23.42;;;-0.70;99.90;;;-2.03;100.00;99074.56;5026662;28;20394;-68
2022/01/26 01:09:00;;;;;;;58.83;18.10;;;-0.70;99.90;;;-1.79;100.00;99074.47;5027430;28;20548;-69
2022/01/26 01:11:28;;;;;;;96.72;18.95;;;-0.70;99.90;;;-1.75;100.00;99066.13;5026203;28;20506;-69
2022/01/26 01:13:56;;;;;;;196.90;24.60;;;-0.60;99.90;;;-1.98;100.00;99073.06;5028256;28;20140;-68
2022/01/26 01:16:24;;;;;;;102.20;18.52;;;-0.60;99.90;;;-2.05;100.00;99066.03;5027059;28;20046;-68
2022/01/26 01:19:04;;;;;;;332.50;30.08;;;-0.60;99.90;;;-2.20;100.00;99069.81;5030464;28;20084;-69
2022/01/26 01:30:21;;;;;;;292.77;31.40;;;-0.70;99.90;;;-2.15;100.00;99075.06;5025765;28;20609;-69
2022/01/26 01:32:54;;;;;;;160.43;22.90;;;-0.70;99.90;;;-2.09;100.00;99080.34;5027737;28;20052;-68
2022/01/26 01:35:21;;;;;;;99.05;20.77;;;-0.80;99.90;;;-1.85;100.00;99076.81;5026243;28;20395;-68
2022/01/26 01:37:49;;;;;;;83.85;17.80;;;-0.70;99.90;;;-1.72;100.00;99069.59;5026529;28;20076;-68
2022/01/26 01:40:16;;;;;;;450.52;33.33;;;-0.60;99.90;;;-2.39;100.00;99064.97;5024775;28;20514;-68
2022/01/26 01:42:43;;;;;;;178.10;23.35;;;-0.60;99.90;;;-2.25;100.00;99066.28;5029605;28;20116;-67
2022/01/26 01:45:10;;;;;;;338.23;32.47;;;-0.60;99.90;;;-2.22;100.00;99062.97;5031366;28;20045;-68
2022/01/26 01:47:37;;;;;;;297.95;28.88;;;-0.70;99.90;;;-2.44;100.00;99076.63;5030888;28;20045;-68
2022/01/26 01:50:10;;;;;;;430.10;32.30;;;-0.70;99.90;;;-2.29;100.00;99071.22;5028359;28;20045;-67
2022/01/26 01:52:38;;;;;;;204.90;24.90;;;-0.80;99.90;;;-2.10;100.00;99070.97;5028653;28;20056;-68
2022/01/26 01:55:05;;;;;;;123.47;21.27;;;-0.80;99.90;;;-1.94;100.00;99074.84;5029048;28;20137;-68
2022/01/26 01:57:33;;;;;;;233.55;25.52;;;-0.70;99.90;;;-2.12;100.00;99070.94;5029542;28;20051;-68
2022/01/26 02:00:00;;;;;;;304.77;25.73;;;-0.70;99.90;;;-2.22;100.00;99079.06;5025678;28;20132;-68
2022/01/26 02:02:27;;;;;;;415.02;32.08;;;-0.70;99.90;;;-2.36;100.00;99080.31;5028009;28;20164;-67
2022/01/26 02:04:54;;;;;;;385.75;30.23;;;-0.80;99.90;;;-2.31;100.00;99074.56;5028405;28;20138;-68
2022/01/26 02:07:21;;;;;;;368.52;29.83;;;-0.80;99.90;;;-2.69;100.00;99073.31;5026694;28;20045;-68
2022/01/26 02:09:48;;;;;;;168.48;23.67;;;-0.90;99.90;;;-2.47;100.00;99077.41;5028539;28;20506;-68
2022/01/26 02:12:20;;;;;;;257.80;26.15;;;-1.00;99.90;;;-2.53;100.00;99074.69;5025967;28;20045;-68
2022/01/26 02:14:49;;;;;;;188.30;22.17;;;-1.10;99.90;;;-2.56;100.00;99079.66;5026444;28;20536;-68
2022/01/26 02:58:04;;;;;;;189.07;24.27;;;-1.00;99.90;;;-2.43;100.00;99084.34;5030821;28;20064;-68
2022/01/26 03:00:41;;;;;;;93.68;16.80;;;-1.00;99.90;;;-2.12;100.00;99086.19;5030246;28;20125;-68
2022/01/26 03:03:18;;;;;;;92.38;17.48;;;-0.90;99.90;;;-2.16;100.00;99075.88;5032203;28;20111;-69
2022/01/26 03:05:53;;;;;;;174.18;21.83;;;-0.90;99.90;;;-2.06;100.00;99089.75;5030771;28;20450;-68
2022/01/26 03:08:29;;;;;;;270.98;22.70;;;-0.80;99.90;;;-2.04;100.00;99085.56;5029581;28;20176;-67
2022/01/26 03:11:00;;;;;;;188.40;19.63;;;-0.80;99.90;;;-2.06;100.00;99075.34;5030961;28;20056;-68
2022/01/26 03:13:31;;;;;;;97.40;17.50;;;-0.70;99.90;;;-1.88;100.00;99077.59;5029772;28;20136;-68
2022/01/26 03:16:04;;;;;;;60.05;14.80;;;-0.70;99.90;;;-1.71;100.00;99073.00;5030514;28;20136;-68
2022/01/26 03:18:51;;;;;;;47.65;14.68;;;-0.60;99.90;;;-1.67;100.00;99068.88;5030481;28;20061;-68
2022/01/26 03:21:31;;;;;;;160.55;21.45;;;-0.50;99.90;;;-1.75;100.00;99072.06;5029900;28;20136;-69
2022/01/26 03:34:31;;;;;;;152.57;17.10;;;-0.40;99.90;;;-2.25;100.00;99053.56;5031140;28;20137;-68
2022/01/26 03:37:04;;;;;;;501.50;36.60;;;-0.50;99.90;;;-2.35;100.00;99060.03;5028840;28;20359;-67
2022/01/26 03:39:39;;;;;;;100.80;15.77;;;-0.60;99.90;;;-2.11;100.00;99056.53;5031247;28;20473;-69
2022/01/26 03:42:08;;;;;;;149.05;21.48;;;-0.60;99.90;;;-1.91;100.00;99065.66;5029768;28;20050;-68
2022/01/26 03:44:35;;;;;;;273.48;25.63;;;-0.60;99.90;;;-1.80;100.00;99068.53;5029675;28;20198;-68
2022/01/26 03:47:03;;;;;;;48.60;14.77;;;-0.50;99.90;;;-1.71;100.00;99076.44;5029148;28;20484;-68
2022/01/26 03:49:30;;;;;;;47.85;14.38;;;-0.40;99.90;;;-1.59;100.00;99073.41;5030984;28;20053;-68
2022/01/26 03:51:56;;;;;;;204.05;20.38;;;-0.40;99.90;;;-1.88;100.00;99072.50;5029653;28;20073;-68
2022/01/26 03:54:24;;;;;;;500.42;35.35;;;-0.40;99.90;;;-2.29;100.00;99064.44;5030208;28;20046;-68
2022/01/26 03:56:51;;;;;;;128.27;19.42;;;-0.50;99.90;;;-1.99;100.00;99068.78;5029110;28;20049;-68
2022/01/26 03:59:17;;;;;;;383.67;29.02;;;-0.50;99.90;;;-2.38;100.00;99067.53;5026970;28;20144;-69
2022/01/26 04:01:44;;;;;;;395.13;31.73;;;-0.60;99.90;;;-2.46;100.00;99074.06;5029122;28;20051;-69
2022/01/26 04:04:12;;;;;;;144.73;19.60;;;-0.60;99.90;;;-2.16;100.00;99079.28;5029108;28;20123;-68
2022/01/26 04:06:39;;;;;;;76.68;16.20;;;-0.70;99.90;;;-2.07;100.00;99091.44;5030275;28;20320;-69
2022/01/26 04:09:09;;;;;;;274.02;25.33;;;-0.70;99.90;;;-2.18;100.00;99073.28;5029160;28;20139;-68
2022/01/26 04:11:41;;;;;;;314.77;28.75;;;-0.70;99.90;;;-2.14;100.00;99074.25;5029364;28;20125;-68
2022/01/26 04:14:15;;;;;;;346.38;29.55;;;-0.70;99.90;;;-2.37;100.00;99082.00;5028885;28;20055;-68
2022/01/26 04:16:43;;;;;;;349.08;28.48;;;-0.70;99.90;;;-2.45;100.00;99080.88;5026052;28;20045;-68
2022/01/26 04:19:10;;;;;;;337.10;28.85;;;-0.80;99.90;;;-2.47;100.00;99079.09;5028027;28;20450;-69
2022/01/26 04:22:03;;;;;;;254.23;23.95;;;-0.80;99.90;;;-2.38;100.00;99080.25;5049057;28;20041;-68
2022/01/26 04:24:39;;;;;;;193.10;22.40;;;-0.90;99.90;;;-2.09;100.00;99087.13;5040031;28;20080;-67
2022/01/26 04:27:20;;;;;;;149.82;19.95;;;-0.80;99.90;;;-2.04;100.00;99099.16;5029375;28;20055;-67
2022/01/26 04:29:48;;;;;;;92.53;16.38;;;-0.80;99.90;;;-1.98;100.00;99085.78;5027619;28;20540;-67
2022/01/26 04:32:16;;;;;;;98.68;17.58;;;-0.80;99.90;;;-2.00;100.00;99075.53;5028510;28;20386;-67
2022/01/26 04:34:47;;;;;;;78.95;14.85;;;-0.80;99.90;;;-1.89;100.00;99075.88;5027246;28;20135;-68
2022/01/26 04:39:57;;;;;;;246.18;22.95;;;-0.70;99.90;;;-2.33;100.00;99076.22;5030305;28;20109;-68
2022/01/26 04:45:05;;;;;;;144.05;19.25;;;-0.80;99.90;;;-2.09;100.00;99080.34;5028493;28;20435;-68
2022/01/26 04:47:32;;;;;;;257.75;25.25;;;-0.80;99.90;;;-2.31;100.00;99084.72;5028610;28;20154;-68
2022/01/26 04:49:59;;;;;;;269.17;25.63;;;-0.80;99.90;;;-2.49;100.00;99076.50;5027801;28;20136;-68
2022/01/26 04:52:26;;;;;;;207.10;25.80;;;-0.80;99.90;;;-2.27;100.00;99089.94;5029120;28;20050;-68
2022/01/26 04:54:53;;;;;;;207.65;24.77;;;-0.80;99.90;;;-2.22;100.00;99089.25;5033603;28;20052;-68
2022/01/26 04:57:20;;;;;;;120.97;20.55;;;-0.80;99.90;;;-2.07;100.00;99095.66;5028552;28;20160;-68
2022/01/26 04:59:47;;;;;;;294.75;26.95;;;-0.80;99.90;;;-2.34;100.00;99084.63;5027959;28;20052;-68
2022/01/26 05:02:15;;;;;;;198.00;20.13;;;-0.80;99.90;;;-2.28;100.00;99078.00;5031328;28;20055;-68
2022/01/26 05:04:42;;;;;;;107.95;16.75;;;-0.90;99.90;;;-2.09;100.00;99084.56;5030502;28;20497;-68
2022/01/26 05:07:09;;;;;;;80.40;16.48;;;-0.90;99.90;;;-2.05;100.00;99078.75;5028531;28;20412;-68
2022/01/26 05:09:36;;;;;;;243.57;24.05;;;-0.90;99.90;;;-2.32;100.00;99071.97;5028490;28;20156;-68
2022/01/26 05:12:04;;;;;;;210.45;24.52;;;-0.80;99.90;;;-2.43;100.00;99078.38;5027816;28;20072;-68
2022/01/26 05:14:31;;;;;;;149.18;20.80;;;-0.80;99.90;;;-2.36;100.00;99072.69;5029210;28;20565;-68
2022/01/26 05:16:58;;;;;;;211.48;28.33;;;-0.80;99.90;;;-2.36;100.00;99073.53;5028941;28;20500;-68
2022/01/26 05:19:25;;;;;;;137.90;21.25;;;-0.90;99.90;;;-2.36;100.00;99073.53;5027326;28;20104;-68
2022/01/26 05:21:52;;;;;;;208.13;24.40;;;-0.80;99.90;;;-2.55;100.00;99058.50;5028259;28;20574;-69
2022/01/26 05:24:19;;;;;;;81.57;19.42;;;-0.80;99.90;;;-2.43;100.00;99068.22;5029276;28;20131;-68
2022/01/26 05:26:46;;;;;;;167.10;23.83;;;-0.90;99.90;;;-2.34;100.00;99066.84;5027992;28;20067;-68
2022/01/26 05:29:13;;;;;;;118.60;19.52;;;-0.90;99.90;;;-2.38;100.00;99054.81;5028793;28;20420;-68
2022/01/26 05:31:40;;;;;;;217.68;25.73;;;-0.90;99.90;;;-2.39;100.00;99055.66;5028284;28;20408;-68
2022/01/26 05:34:07;;;;;;;323.85;31.15;;;-0.90;99.90;;;-2.35;100.00;99054.94;5028012;28;20073;-68
2022/01/26 05:36:34;;;;;;;369.13;35.10;;;-0.90;99.90;;;-2.47;100.00;99049.44;5029130;28;20091;-67
2022/01/26 05:39:03;;;;;;;337.02;33.08;;;-0.90;99.90;;;-2.46;100.00;99042.66;5027714;28;20131;-67
2022/01/26 05:41:30;;;;;;;238.75;26.48;;;-0.90;99.90;;;-2.44;100.00;99041.94;5027671;28;20128;-68
2022/01/26 05:43:57;;;;;;;180.27;26.05;;;-0.90;99.90;;;-2.46;100.00;99047.75;5028211;28;20056;-68
2022/01/26 05:46:35;;;;;;;367.38;48.65;;;-1.00;99.90;;;-2.69;100.00;99049.53;5027864;28;20140;-68
2022/01/26 05:49:02;;;;;;;275.98;38.30;;;-1.00;99.90;;;-2.64;100.00;99042.97;5027712;28;20045;-68
2022/01/26 05:51:32;;;;;;;281.25;34.63;;;-1.10;99.90;;;-2.77;100.00;99036.59;5026927;28;20129;-68
2022/01/26 05:54:04;;;;;;;107.35;23.55;;;-1.10;99.90;;;-2.64;100.00;99048.91;5027103;28;20061;-68
2022/01/26 05:56:31;;;;;;;201.05;29.65;;;-1.10;99.90;;;-2.72;100.00;99047.75;5013750;28;20073;-68
2022/01/26 05:58:58;;;;;;;176.65;26.50;;;-1.10;99.90;;;-2.64;100.00;99041.28;5022423;28;20140;-68
2022/01/26 06:01:26;;;;;;;251.15;28.50;;;-1.10;99.90;;;-2.68;100.00;99046.19;5028688;28;20140;-68
2022/01/26 06:03:53;;;;;;;238.65;35.22;;;-1.10;99.90;;;-2.66;100.00;99045.44;5029290;28;20046;-68
2022/01/26 06:06:20;;;;;;;128.15;22.77;;;-1.10;99.90;;;-2.37;100.00;99035.38;5027389;28;20049;-68
2022/01/26 06:08:47;;;;;;;312.75;47.70;;;-1.10;99.90;;;-2.45;100.00;99036.78;5026445;28;20076;-68
2022/01/26 06:11:14;;;;;;;89.30;21.05;;;-1.00;99.90;;;-2.39;100.00;99037.84;5027613;28;20052;-68
2022/01/26 06:13:41;;;;;;;149.25;31.33;;;-1.00;99.90;;;-2.35;100.00;99034.59;5028564;28;20073;-68
2022/01/26 06:16:08;;;;;;;171.13;34.72;;;-1.00;99.90;;;-2.20;100.00;99036.75;5026276;28;20541;-68
2022/01/26 06:18:35;;;;;;;295.13;44.00;;;-0.90;99.90;;;-2.40;100.00;99030.16;5027361;28;20132;-68
2022/01/26 06:21:02;;;;;;;226.15;28.02;;;-0.90;99.90;;;-2.38;100.00;99041.25;5028508;28;20128;-68
2022/01/26 06:23:29;;;;;;;279.10;40.30;;;-0.90;99.90;;;-2.32;100.00;99041.47;5029634;28;20094;-69
2022/01/26 06:25:58;;;;;;;171.30;28.92;;;-0.90;99.90;;;-2.53;100.00;99042.50;5026942;28;20322;-67
2022/01/26 06:28:28;;;;;;;221.00;27.00;;;-0.90;99.90;;;-2.64;100.00;99042.97;5026475;28;20073;-68
2022/01/26 06:31:00;;;;;;;156.75;27.75;;;-0.90;99.90;;;-2.52;100.00;99048.44;5029017;28;20152;-68
2022/01/26 06:33:27;;;;;;;237.98;32.72;;;-0.90;99.90;;;-2.50;100.00;99058.66;5031460;28;20041;-68
2022/01/26 06:35:56;;;;;;;133.45;26.77;;;-0.90;99.90;;;-2.40;100.00;99063.22;5030109;28;20502;-68
2022/01/26 06:38:24;;;;;;;245.73;34.38;;;-1.00;99.90;;;-2.59;100.00;99077.88;5029769;28;20124;-69
2022/01/26 06:40:52;;;;;;;121.00;23.63;;;-1.00;99.90;;;-2.53;100.00;99077.22;5030420;28;20053;-68
2022/01/26 06:43:22;;;;;;;210.90;32.35;;;-1.00;99.90;;;-2.51;100.00;99075.56;5032151;28;20232;-68
2022/01/26 06:45:54;;;;;;;199.68;29.10;;;-1.00;99.90;;;-2.66;100.00;99080.16;5032896;28;20075;-68
2022/01/26 06:50:53;;;;;;;237.23;30.33;;;-1.00;99.90;;;-2.56;100.00;99067.78;5031683;28;20526;-68
2022/01/26 06:53:20;;;;;;;181.48;27.27;;;-1.00;99.90;;;-2.49;100.00;99060.38;5034709;28;20442;-69
2022/01/26 06:55:47;;;;;;;144.57;22.75;;;-1.00;99.90;;;-2.58;100.00;99061.81;5037884;28;20078;-67
2022/01/26 06:58:14;;;;;;;92.10;22.77;;;-1.00;99.90;;;-2.61;100.00;99058.31;5030991;28;20053;-67
2022/01/26 07:00:41;;;;;;;192.15;26.80;;;-1.10;99.90;;;-2.64;100.00;99073.47;5034288;28;20515;-68
2022/01/26 07:03:09;;;;;;;158.13;24.40;;;-1.10;99.90;;;-2.47;100.00;99081.63;5030767;28;20050;-68
2022/01/26 07:05:36;;;;;;;139.77;26.45;;;-1.10;99.90;;;-2.61;100.00;99088.81;5030999;28;20072;-68
2022/01/26 07:08:03;;;;;;;166.45;24.25;;;-1.20;99.90;;;-2.53;100.00;99095.03;5032310;28;20133;-67
2022/01/26 07:10:36;;;;;;;223.27;29.60;;;-1.20;99.90;;;-2.61;100.00;99102.38;5032537;28;20046;-68
2022/01/26 07:13:03;;;;;;;232.70;28.42;;;-1.10;99.90;;;-2.63;100.00;99104.00;5030872;28;20080;-68
2022/01/26 07:23:36;;;;;;;77.15;19.95;;;-1.00;99.90;;;-2.03;100.00;99128.91;5043654;28;20057;-69
2022/01/26 07:26:03;;;;;;;59.47;19.52;;;-0.90;99.90;;;-1.99;100.00;99122.19;5033191;28;20413;-67
2022/01/26 07:28:35;;;;;;;212.65;27.02;;;-0.80;99.90;;;-2.33;100.00;99128.72;5030407;28;20667;-68
2022/01/26 07:31:09;;;;;;;112.95;23.10;;;-0.70;99.90;;;-2.28;100.00;99128.88;5032150;28;20536;-67
2022/01/26 07:33:38;;;;;;;113.50;22.48;;;-0.80;99.90;;;-2.23;100.00;99140.94;5029337;28;20180;-67
2022/01/26 07:36:06;;;;;;;130.90;23.50;;;-0.80;99.90;;;-2.33;100.00;99138.91;5032507;28;20154;-68
2022/01/26 07:38:33;;;;;;;89.22;21.67;;;-0.80;99.90;;;-2.21;100.00;99113.00;5030422;28;20129;-68
2022/01/26 07:41:00;;;;;;;157.50;23.70;;;-0.80;99.90;;;-2.45;100.00;99111.38;5031680;28;20133;-68
2022/01/26 07:43:27;;;;;;;86.13;20.98;;;-0.80;99.90;;;-2.47;100.00;99113.00;5028641;28;20128;-68
2022/01/26 07:45:55;;;;;;;149.63;24.20;;;-0.80;99.90;;;-2.39;100.00;99101.44;5028777;28;20037;-67
2022/01/26 07:48:23;;;;;;;59.75;17.30;;;-0.80;99.90;;;-2.11;100.00;99113.34;5030698;28;20072;-68
2022/01/26 07:50:52;;;;;;;65.18;17.80;;;-0.80;99.90;;;-2.05;100.00;99122.88;5030989;28;20505;-68
2022/01/26 07:53:20;;;;;;;112.50;20.50;;;-0.80;99.90;;;-2.15;100.00;99121.69;5032610;28;20072;-68
2022/01/26 07:55:48;;;;;;;105.60;21.13;;;-0.70;99.90;;;-2.07;100.00;99123.66;5029452;28;20128;-68
2022/01/26 07:58:18;;;;;;;63.45;19.75;;;-0.70;99.90;;;-2.02;100.00;99132.28;5030466;28;20053;-68
2022/01/26 08:00:45;;;;;;;69.28;16.08;;;-0.70;99.90;;;-2.15;100.00;99142.06;5029567;28;20148;-68
2022/01/26 08:03:12;;;;;;;64.85;17.48;;;-0.70;99.90;;;-2.15;100.00;99142.06;5029417;28;20053;-68
2022/01/26 08:05:40;;;;;;;92.82;20.10;;;-0.70;99.90;;;-2.11;100.00;99156.59;5031325;28;20050;-68
2022/01/26 08:08:07;;;;;;;110.35;22.35;;;-0.70;99.90;;;-1.93;100.00;99135.13;5030170;28;20042;-68
2022/01/26 08:10:35;;;;;;;52.58;16.95;;;-0.70;99.90;;;-2.03;100.00;99133.09;5030241;28;20057;-68
2022/01/26 08:13:03;;;;;;;55.75;16.35;;;-0.70;99.90;;;-1.89;100.00;99170.06;5029773;28;20344;-69
2022/01/26 08:15:30;;;;;;;50.25;15.70;;;-0.60;99.90;;;-1.77;100.00;99182.31;5032353;28;20053;-69
2022/01/26 08:17:58;;;;;;;69.50;16.02;;;-0.60;99.90;;;-1.84;100.00;99172.75;5030250;28;20151;-68
2022/01/26 08:20:26;;;;;;;65.50;17.73;;;-0.50;99.90;;;-1.88;100.00;99181.09;5030801;28;20132;-67
2022/01/26 08:22:55;;;;;;;82.90;17.27;;;-0.50;99.90;;;-1.72;100.00;99173.13;5028590;28;20140;-67
2022/01/26 08:25:23;;;;;;;121.60;19.92;;;-0.60;99.90;;;-2.07;100.00;99154.19;5030426;28;20119;-69
2022/01/26 08:27:57;;;;;;;105.00;23.65;;;-0.60;99.90;;;-1.94;100.00;99138.47;5012530;28;20541;-68
2022/01/26 08:30:24;;;;;;;96.22;22.00;;;-0.60;99.90;;;-1.71;100.00;99142.63;5014310;28;20558;-68
2022/01/26 08:32:51;;;;;;;89.53;18.92;;;-0.60;99.90;;;-1.96;100.00;99128.28;5029450;28;20052;-68
2022/01/26 08:35:18;;;;;;;86.78;17.80;;;-0.50;99.90;;;-2.07;100.00;99126.19;5027596;28;20049;-68
2022/01/26 08:37:45;;;;;;;193.88;25.48;;;-0.60;99.90;;;-2.12;100.00;99120.97;5027479;28;20053;-68
2022/01/26 08:40:12;;;;;;;116.20;21.88;;;-0.60;99.90;;;-2.00;100.00;99120.50;5030712;28;20453;-69
2022/01/26 08:42:41;;;;;;;140.93;25.88;;;-0.60;99.90;;;-2.09;100.00;99130.38;5030473;28;20125;-67
2022/01/26 08:45:09;;;;;;;94.75;21.63;;;-0.60;99.90;;;-2.08;100.00;99112.59;5031345;28;20157;-68
2022/01/26 08:47:36;;;;;;;87.68;21.00;;;-0.60;99.90;;;-2.45;100.00;99118.16;5035385;28;20164;-68
2022/01/26 08:50:05;;;;;;;84.82;19.05;;;-0.60;99.90;;;-2.22;100.00;99117.22;5029456;28;20132;-68
2022/01/26 08:52:32;;;;;;;155.48;25.67;;;-0.60;99.90;;;-2.21;100.00;99128.25;5029229;28;20090;-68
2022/01/26 08:55:00;;;;;;;117.65;23.13;;;-0.70;99.90;;;-2.14;100.00;99127.69;5030201;28;20211;-68
2022/01/26 08:57:27;;;;;;;84.22;17.23;;;-0.70;99.90;;;-2.34;100.00;99119.38;5029376;28;20136;-69
2022/01/26 08:59:54;;;;;;;64.70;18.25;;;-0.60;99.90;;;-2.22;100.00;99129.94;5028270;28;20390;-68
2022/01/26 09:02:21;;;;;;;69.40;19.95;;;-0.70;99.90;;;-2.25;100.00;99129.00;5030499;28;20132;-68
2022/01/26 09:04:49;;;;;;;72.28;20.80;;;-0.70;99.90;;;-2.13;100.00;99122.63;5029763;28;20088;-68
2022/01/26 09:07:19;;;;;;;86.32;21.27;;;-0.80;99.90;;;-2.11;100.00;99107.41;5029000;28;20421;-67
2022/01/26 09:09:46;;;;;;;65.72;18.73;;;-0.70;99.90;;;-1.97;100.00;99112.94;5026720;28;20575;-67
2022/01/26 09:12:17;;;;;;;50.30;16.83;;;-0.70;99.90;;;-1.84;100.00;99102.34;5029329;28;20045;-68
2022/01/26 09:14:47;;;;;;;62.50;18.50;;;-0.70;99.90;;;-1.98;100.00;99098.50;5026576;28;20505;-67
2022/01/26 09:17:15;;;;;;;80.13;20.17;;;-0.60;99.90;;;-2.03;100.00;99113.63;5029301;28;20131;-68
2022/01/26 09:19:43;;;;;;;65.88;20.65;;;-0.60;99.90;;;-1.93;100.00;99125.81;5028893;28;20136;-68
2022/01/26 09:22:16;;;;;;;59.63;19.48;;;-0.60;99.90;;;-1.99;100.00;99117.13;5028497;28;20143;-68
2022/01/26 09:24:44;;;;;;;45.33;17.33;;;-0.50;99.90;;;-1.78;100.00;99120.34;5027535;28;20147;-68
2022/01/26 09:27:15;;;;;;;59.75;20.05;;;-0.40;99.90;;;-2.03;100.00;99126.34;5028711;28;20255;-68
2022/01/26 09:29:44;;;;;;;73.50;19.30;;;-0.40;99.90;;;-2.11;100.00;99117.59;5027352;28;20077;-68
2022/01/26 09:32:12;;;;;;;64.60;19.83;;;-0.40;99.90;;;-2.13;100.00;99119.22;5028655;28;20049;-68
2022/01/26 09:34:42;;;;;;;33.05;12.15;;;-0.50;99.90;;;-2.15;100.00;99114.06;5026878;28;20512;-68
2022/01/26 09:37:13;;;;;;;45.10;16.67;;;-0.60;99.90;;;-2.11;100.00;99133.72;5030397;28;20058;-68
2022/01/26 09:39:43;;;;;;;43.15;15.68;;;-0.70;99.90;;;-2.33;100.00;99123.63;5028380;28;20053;-68
2022/01/26 09:42:11;;;;;;;74.90;20.38;;;-0.70;99.90;;;-2.34;100.00;99117.69;5029919;28;20441;-67
2022/01/26 09:44:39;;;;;;;84.75;23.63;;;-0.70;99.90;;;-2.26;100.00;99119.63;5028464;28;20049;-68
2022/01/26 09:47:07;;;;;;;92.40;24.05;;;-0.70;99.90;;;-2.32;100.00;99110.97;5026001;28;20046;-68
2022/01/26 09:49:36;;;;;;;58.25;18.95;;;-0.70;99.90;;;-2.21;100.00;99136.78;5012388;28;20049;-67
2022/01/26 09:52:13;;;;;;;43.97;17.23;;;-0.70;99.90;;;-2.22;100.00;99132.50;5030414;28;20057;-68
2022/01/26 09:54:44;;;;;;;44.30;17.65;;;-0.70;99.90;;;-2.35;100.00;99135.44;4999954;28;20061;-67
2022/01/26 09:57:26;;;;;;;37.33;15.85;;;-0.70;99.90;;;-2.35;100.00;99145.59;5014027;28;20050;-68
2022/01/26 09:59:53;;;;;;;40.50;15.55;;;-0.70;99.90;;;-2.19;100.00;99163.13;5039743;28;20055;-67
2022/01/26 10:02:24;;;;;;;35.25;15.38;;;-0.80;99.90;;;-2.18;100.00;99169.09;5030779;28;20099;-68
2022/01/26 10:05:05;;;;;;;46.67;17.40;;;-0.70;99.90;;;-2.30;100.00;99177.16;5028582;28;20057;-68
2022/01/26 10:18:07;;;;;;;35.58;15.50;;;-0.50;99.90;;;-1.95;100.00;99180.03;5049102;28;20049;-68
2022/01/26 10:20:41;;;;;;;41.40;16.73;;;-0.50;99.90;;;-1.97;100.00;99181.66;5041122;28;20045;-68
2022/01/26 10:23:13;;;;;;;36.05;15.35;;;-0.50;99.90;;;-1.91;100.00;99171.69;5028462;28;20049;-68
2022/01/26 10:26:00;;;;;;;46.00;17.50;;;-0.50;99.90;;;-1.94;100.00;99179.19;5014306;28;20076;-67
2022/01/26 10:28:43;;;;;;;40.65;17.02;;;-0.40;99.90;;;-1.75;100.00;99190.84;5015705;28;20072;-67
2022/01/26 10:31:23;;;;;;;48.17;19.95;;;-0.40;99.90;;;-1.75;100.00;99206.13;5026891;28;20490;-66
2022/01/26 10:34:15;;;;;;;55.28;17.05;;;-0.40;99.90;;;-1.77;100.00;99218.81;5028773;28;20053;-67
2022/01/26 10:37:00;;;;;;;42.00;15.85;;;-0.30;99.90;;;-1.74;100.00;99205.31;5032028;28;20126;-67
2022/01/26 10:39:35;;;;;;;44.80;17.02;;;-0.40;99.90;;;-1.88;100.00;99196.34;5027077;28;20136;-67
2022/01/26 10:42:09;;;;;;;40.72;18.33;;;-0.40;99.90;;;-1.74;100.00;99175.63;5030412;28;20456;-67
2022/01/26 10:45:29;;;;;;;47.95;19.40;;;-0.40;99.90;;;-1.88;100.00;99166.69;5028817;28;20049;-67
2022/01/26 10:47:34;;;;;;;63.83;22.20;;;-0.40;99.90;;;-1.97;100.00;99153.66;5016456;28;20045;-67
2022/01/26 10:50:44;;;;;;;34.13;13.95;;;-0.40;99.90;;;-1.96;100.00;99155.38;5021135;28;20099;-67
2022/01/26 10:53:17;;;;;;;43.17;16.42;;;-0.40;99.90;;;-2.05;100.00;99142.34;5015318;28;20049;-67
2022/01/26 10:55:44;;;;;;;39.70;17.33;;;-0.40;99.90;;;-1.88;100.00;99148.88;5038355;28;20057;-67
2022/01/26 10:58:16;;;;;;;37.65;17.70;;;-0.40;99.90;;;-1.72;100.00;99160.41;5028722;28;20438;-68
2022/01/26 11:00:44;;;;;;;33.55;16.65;;;-0.40;99.90;;;-1.60;100.00;99170.09;5027439;28;20057;-67
2022/01/26 11:03:11;;;;;;;32.80;16.67;;;-0.30;99.90;;;-1.50;100.00;99180.63;5027145;28;20053;-67
2022/01/26 11:05:39;;;;;;;38.33;19.10;;;-0.30;99.90;;;-1.49;100.00;99171.28;5029555;28;20053;-67
2022/01/26 11:08:09;;;;;;;43.17;17.75;;;-0.20;99.90;;;-1.48;100.00;99162.84;5029159;28;20402;-67
2022/01/26 11:10:39;;;;;;;43.00;18.98;;;-0.10;99.90;;;-1.55;100.00;99176.19;5028386;28;20057;-67
2022/01/26 11:13:07;;;;;;;36.88;16.48;;;-0.10;99.90;;;-1.55;100.00;99176.19;5027743;28;20128;-67
2022/01/26 11:15:35;;;;;;;31.77;15.27;;;-0.10;99.90;;;-1.63;100.00;99168.31;5027783;28;20514;-67
2022/01/26 11:18:19;;;;;;;59.25;22.00;;;-0.10;99.90;;;-1.83;100.00;99160.03;5032921;28;20056;-68
2022/01/26 11:20:52;;;;;;;47.65;20.90;;;-0.10;99.90;;;-1.77;100.00;99150.06;5032125;28;20072;-67
2022/01/26 11:23:34;;;;;;;42.45;18.25;;;-0.10;99.90;;;-1.69;100.00;99152.84;5030787;28;20046;-67
2022/01/26 11:26:02;;;;;;;44.03;16.75;;;-0.10;99.90;;;-1.59;100.00;99154.88;5031614;28;20128;-68
2022/01/26 11:28:29;;;;;;;44.15;19.38;;;-0.10;99.90;;;-1.51;100.00;99157.66;5029630;28;20422;-67
2022/01/26 11:31:03;;;;;;;45.55;18.70;;;-0.10;99.90;;;-1.37;100.00;99145.34;5032389;28;20156;-68
2022/01/26 11:33:34;;;;;;;41.63;17.77;;;0.00;99.90;;;-1.39;100.00;99136.78;5031885;28;20052;-68
2022/01/26 11:36:02;;;;;;;37.30;16.67;;;0.00;99.90;;;-1.32;100.00;99154.00;5033188;28;20413;-67
2022/01/26 11:47:21;;;;;;;40.90;18.27;;;0.00;99.90;;;-1.57;100.00;99134.56;5031329;28;20148;-67
2022/01/26 11:50:00;;;;;;;37.38;17.02;;;-0.10;99.90;;;-1.41;100.00;99139.31;5031838;28;20119;-68
2022/01/26 11:52:35;;;;;;;48.05;19.75;;;-0.10;99.90;;;-1.53;100.00;99144.00;5033403;28;20152;-69
2022/01/26 11:55:20;;;;;;;48.00;19.30;;;-0.10;99.90;;;-1.52;100.00;99131.31;5030114;28;20045;-67
2022/01/26 11:57:51;;;;;;;47.55;19.42;;;-0.10;99.90;;;-1.65;100.00;99138.53;5027102;28;20076;-67
2022/01/26 12:00:41;;;;;;;39.97;18.77;;;-0.10;99.90;;;-1.58;100.00;99131.13;5029723;28;20156;-67
2022/01/26 12:03:31;;;;;;;44.58;19.65;;;-0.10;99.90;;;-1.42;100.00;99132.47;5030655;28;20069;-68